createdAt,value
2022-11-03T00:01:51.378Z,3.90
2022-11-03T00:04:21.073Z,4.03
2022-11-03T00:06:50.834Z,4.03
2022-11-03T00:09:20.046Z,3.93
2022-11-03T00:11:49.015Z,4.10
2022-11-03T00:14:17.455Z,3.73
2022-11-03T00:16:46.241Z,3.13
2022-11-03T00:19:17.389Z,3.43
2022-11-03T00:21:58.435Z,4.27
2022-11-03T00:27:12.168Z,4.10
2022-11-03T00:29:40.561Z,3.40
2022-11-03T00:32:08.987Z,3.50
2022-11-03T00:34:38.708Z,4.33
2022-11-03T00:37:13.250Z,4.40
2022-11-03T00:39:41.655Z,3.73
2022-11-03T00:42:10.095Z,3.73
2022-11-03T00:44:41.406Z,4.57
2022-11-03T00:47:09.823Z,4.03
2022-11-03T00:49:39.612Z,3.40
2022-11-03T00:52:07.953Z,3.30
2022-11-03T00:54:36.304Z,2.10
2022-11-03T00:57:04.711Z,3.87
2022-11-03T00:59:33.094Z,4.00
2022-11-03T01:02:01.645Z,4.80
2022-11-03T01:04:47.543Z,2.93
2022-11-03T01:07:17.307Z,4.07
2022-11-03T01:09:45.671Z,4.47
2022-11-03T01:12:15.124Z,3.20
2022-11-03T01:14:44.698Z,3.73
2022-11-03T01:17:14.257Z,3.73
2022-11-03T01:19:42.760Z,3.80
2022-11-03T01:22:11.620Z,4.03
2022-11-03T01:24:41.854Z,3.80
2022-11-03T01:27:10.587Z,2.50
2022-11-03T01:29:38.958Z,2.70
2022-11-03T01:32:08.413Z,3.83
2022-11-03T01:34:39.600Z,4.10
2022-11-03T01:37:10.258Z,5.03
2022-11-03T01:39:38.667Z,3.47
2022-11-03T01:42:08.522Z,3.50
2022-11-03T01:44:38.387Z,4.60
2022-11-03T01:47:10.814Z,4.63
2022-11-03T01:49:42.312Z,4.07
2022-11-03T01:52:13.359Z,3.77
2022-11-03T01:54:45.363Z,3.63
2022-11-03T01:57:17.227Z,5.10
2022-11-03T01:59:53.963Z,3.57
2022-11-03T02:02:26.048Z,3.70
2022-11-03T02:04:55.172Z,4.13
2022-11-03T02:07:29.908Z,6.03
2022-11-03T02:09:58.337Z,4.63
2022-11-03T02:12:29.362Z,2.07
2022-11-03T02:15:03.678Z,4.87
2022-11-03T02:17:51.961Z,4.43
2022-11-03T02:20:26.976Z,3.37
2022-11-03T02:23:16.383Z,3.23
2022-11-03T02:25:47.249Z,3.70
2022-11-03T02:28:17.041Z,3.90
2022-11-03T02:30:47.055Z,4.23
2022-11-03T02:33:22.701Z,3.60
2022-11-03T02:35:54.507Z,3.30
2022-11-03T02:38:41.728Z,3.70
2022-11-03T02:41:11.846Z,4.23
2022-11-03T02:43:40.710Z,3.20
2022-11-03T02:46:09.643Z,4.90
2022-11-03T02:48:44.473Z,4.03
2022-11-03T02:51:13.032Z,4.20
2022-11-03T02:53:44.745Z,3.13
2022-11-03T02:56:16.004Z,3.40
2022-11-03T02:58:47.850Z,4.17
2022-11-03T03:01:19.104Z,3.33
2022-11-03T03:04:03.734Z,4.97
2022-11-03T03:06:37.963Z,5.53
2022-11-03T03:09:07.645Z,4.80
2022-11-03T03:11:39.031Z,3.50
2022-11-03T03:14:13.550Z,3.03
2022-11-03T03:16:50.151Z,2.53
2022-11-03T03:19:32.619Z,3.23
2022-11-03T03:22:03.143Z,3.70
2022-11-03T03:24:44.146Z,3.30
2022-11-03T03:27:15.618Z,4.13
2022-11-03T03:29:47.546Z,4.23
2022-11-03T03:32:18.578Z,4.50
2022-11-03T03:34:48.574Z,2.63
2022-11-03T03:37:18.281Z,4.00
2022-11-03T03:39:48.326Z,3.03
2022-11-03T03:42:18.936Z,4.07
2022-11-03T03:44:48.242Z,2.70
2022-11-03T03:47:19.607Z,4.83
2022-11-03T03:49:48.015Z,4.80
2022-11-03T03:52:17.124Z,4.23
2022-11-03T03:54:52.651Z,4.80
2022-11-03T03:57:24.144Z,5.60
2022-11-03T04:02:48.588Z,3.97
2022-11-03T04:05:17.167Z,4.40
2022-11-03T04:07:48.372Z,3.40
2022-11-03T04:10:16.988Z,3.37
2022-11-03T04:13:05.084Z,3.93
2022-11-03T04:16:03.041Z,4.13
2022-11-03T04:18:48.933Z,3.50
2022-11-03T04:21:31.199Z,4.87
2022-11-03T04:24:00.356Z,4.20
2022-11-03T04:26:29.448Z,4.27
2022-11-03T04:28:59.808Z,4.00
2022-11-03T04:31:28.456Z,4.00
2022-11-03T04:34:01.396Z,3.43
2022-11-03T04:36:29.810Z,4.90
2022-11-03T04:38:59.781Z,4.73
2022-11-03T04:41:31.227Z,3.70
2022-11-03T04:44:06.635Z,2.67
2022-11-03T04:46:35.110Z,3.80
2022-11-03T04:49:03.774Z,3.97
2022-11-03T04:51:34.831Z,3.13
2022-11-03T04:54:04.598Z,5.37
2022-11-03T04:56:33.794Z,6.13
2022-11-03T04:59:03.514Z,4.50
2022-11-03T05:01:32.075Z,4.80
2022-11-03T05:04:00.814Z,3.97
2022-11-03T05:06:43.126Z,4.47
2022-11-03T05:09:14.673Z,4.23
2022-11-03T05:11:45.915Z,2.80
2022-11-03T05:14:20.345Z,4.83
2022-11-03T05:17:04.214Z,3.90
2022-11-03T05:19:35.226Z,5.33
2022-11-03T05:22:05.047Z,2.97
2022-11-03T05:24:34.557Z,3.57
2022-11-03T05:27:05.487Z,3.43
2022-11-03T05:29:37.845Z,3.43
2022-11-03T05:32:12.336Z,4.30
2022-11-03T05:34:43.115Z,3.13
2022-11-03T05:37:28.126Z,3.57
2022-11-03T05:39:58.768Z,3.93
2022-11-03T05:42:30.504Z,2.77
2022-11-03T05:45:00.217Z,3.57
2022-11-03T05:47:33.369Z,4.30
2022-11-03T05:50:03.604Z,4.73
2022-11-03T05:52:37.218Z,3.80
2022-11-03T05:55:06.091Z,4.80
2022-11-03T05:57:41.165Z,4.93
2022-11-03T06:00:30.206Z,3.43
2022-11-03T06:03:21.732Z,4.30
2022-11-03T06:05:52.676Z,3.67
2022-11-03T06:08:22.106Z,4.40
2022-11-03T06:11:03.217Z,3.97
2022-11-03T06:13:40.121Z,3.00
2022-11-03T06:16:32.424Z,3.93
2022-11-03T06:19:12.312Z,3.33
2022-11-03T06:21:44.549Z,4.93
2022-11-03T06:24:14.941Z,4.97
2022-11-03T06:26:53.590Z,3.33
2022-11-03T06:29:25.274Z,4.23
2022-11-03T06:32:14.717Z,4.37
2022-11-03T06:34:45.656Z,4.47
2022-11-03T06:37:20.136Z,3.53
2022-11-03T06:39:48.907Z,3.43
2022-11-03T06:42:40.595Z,4.57
2022-11-03T06:45:26.903Z,2.97
2022-11-03T06:48:06.017Z,4.00
2022-11-03T06:50:45.250Z,4.07
2022-11-03T06:53:21.055Z,2.73
2022-11-03T06:55:50.419Z,3.73
2022-11-03T06:58:21.868Z,3.50
2022-11-03T07:00:51.628Z,4.80
2022-11-03T07:03:52.690Z,3.37
2022-11-03T07:09:17.392Z,4.30
2022-11-03T07:11:49.987Z,4.77
2022-11-03T07:18:26.339Z,3.00
2022-11-03T07:24:40.793Z,2.83
2022-11-03T07:27:16.873Z,3.70
2022-11-03T07:33:35.555Z,3.97
2022-11-03T07:40:00.944Z,3.57
2022-11-03T07:42:29.980Z,4.33
2022-11-03T07:45:04.904Z,3.80
2022-11-03T07:55:32.313Z,3.93
2022-11-03T07:58:03.812Z,3.80
2022-11-03T08:00:35.296Z,3.50
2022-11-03T08:09:42.675Z,4.43
2022-11-03T08:12:13.410Z,4.23
2022-11-03T08:14:43.662Z,3.60
2022-11-03T08:17:33.911Z,4.30
2022-11-03T08:20:02.697Z,4.20
2022-11-03T08:22:31.625Z,4.80
2022-11-03T08:25:06.479Z,4.20
2022-11-03T08:27:35.664Z,4.50
2022-11-03T08:30:05.959Z,4.47
2022-11-03T08:32:34.752Z,3.73
2022-11-03T08:35:03.901Z,4.67
2022-11-03T08:37:32.610Z,3.73
2022-11-03T08:40:01.504Z,5.60
2022-11-03T08:46:36.921Z,3.70
2022-11-03T09:10:22.374Z,4.27
2022-11-03T09:15:57.172Z,4.33
2022-11-03T09:18:26.081Z,4.80
2022-11-03T09:20:54.951Z,3.57
2022-11-03T09:23:25.946Z,5.70
2022-11-03T09:25:56.440Z,5.10
2022-11-03T09:28:25.317Z,4.80
2022-11-03T09:34:23.549Z,5.37
2022-11-03T09:37:00.828Z,4.80
2022-11-03T09:58:42.086Z,5.73
2022-11-03T10:01:12.331Z,3.70
2022-11-03T10:03:41.570Z,4.40
2022-11-03T10:06:12.889Z,4.50
2022-11-03T10:08:45.416Z,4.97
2022-11-03T10:11:15.161Z,4.03
2022-11-03T10:13:47.697Z,4.60
2022-11-03T10:16:17.971Z,5.10
2022-11-03T10:31:17.056Z,3.93
2022-11-03T10:34:06.752Z,3.93
2022-11-03T10:36:36.390Z,2.53
2022-11-03T10:39:22.519Z,3.37
2022-11-03T10:41:57.528Z,3.97
2022-11-03T10:44:28.065Z,4.57
2022-11-03T10:47:00.616Z,4.83
2022-11-03T10:49:31.542Z,3.43
2022-11-03T10:52:11.251Z,4.27
2022-11-03T10:54:40.035Z,4.30
2022-11-03T10:57:08.888Z,4.80
2022-11-03T10:59:39.102Z,3.70
2022-11-03T11:06:27.921Z,4.13
2022-11-03T11:09:29.385Z,2.20
2022-11-03T11:23:54.721Z,4.17
2022-11-03T11:38:28.904Z,4.17
2022-11-03T11:41:01.706Z,3.37
2022-11-03T11:47:21.013Z,3.63
2022-11-03T11:50:22.740Z,3.40
2022-11-03T11:52:53.090Z,3.27
2022-11-03T11:55:25.595Z,1.77
2022-11-03T11:57:56.595Z,3.27
2022-11-03T12:06:47.886Z,3.60
2022-11-03T12:09:22.779Z,3.17
2022-11-03T12:11:56.142Z,3.17
2022-11-03T12:14:37.857Z,3.40
2022-11-03T12:17:25.704Z,3.23
2022-11-03T12:19:57.450Z,3.20
2022-11-03T12:22:41.529Z,3.37
2022-11-03T12:25:28.911Z,2.93
2022-11-03T12:28:32.628Z,3.40
2022-11-03T12:31:05.817Z,3.37
2022-11-03T12:33:37.823Z,2.90
2022-11-03T12:36:06.718Z,3.20
2022-11-03T12:38:35.578Z,3.20
2022-11-03T12:41:20.622Z,3.43
2022-11-03T12:47:03.807Z,3.00
2022-11-03T12:49:35.571Z,3.67
2022-11-03T12:52:08.279Z,2.67
2022-11-03T12:54:37.557Z,3.93
2022-11-03T12:57:06.373Z,2.97
2022-11-03T12:59:38.889Z,3.60
2022-11-03T13:02:13.189Z,3.90
2022-11-03T13:04:47.737Z,3.00
2022-11-03T13:07:20.617Z,3.13
2022-11-03T13:09:54.529Z,2.97
2022-11-03T13:12:36.925Z,2.20
2022-11-03T13:15:10.372Z,1.80
2022-11-03T13:18:07.275Z,3.37
2022-11-03T13:20:34.727Z,2.60
2022-11-03T13:23:06.448Z,2.10
2022-11-03T13:25:43.641Z,2.73
2022-11-03T13:28:14.819Z,3.07
2022-11-03T13:30:52.413Z,2.00
2022-11-03T13:33:25.585Z,2.20
2022-11-03T13:35:54.513Z,3.23
2022-11-03T13:38:23.440Z,2.90
2022-11-03T13:41:01.123Z,2.47
2022-11-03T13:43:34.414Z,2.27
2022-11-03T13:46:04.355Z,2.50
2022-11-03T13:51:23.063Z,2.37
2022-11-03T13:59:29.236Z,3.23
2022-11-03T14:04:48.359Z,2.57
2022-11-03T14:07:17.169Z,2.20
2022-11-03T14:09:45.697Z,2.07
2022-11-03T14:12:31.537Z,2.27
2022-11-03T14:15:00.171Z,1.87
2022-11-03T14:17:31.323Z,1.67
2022-11-03T14:20:04.468Z,2.00
2022-11-03T14:22:34.867Z,2.67
2022-11-03T14:25:03.997Z,2.40
2022-11-03T14:27:32.607Z,2.23
2022-11-03T14:30:01.576Z,2.40
2022-11-03T14:32:30.290Z,1.97
2022-11-03T14:35:00.069Z,3.03
2022-11-03T14:37:30.485Z,2.37
2022-11-03T14:39:59.082Z,1.97
2022-11-03T14:42:26.718Z,2.20
2022-11-03T14:44:55.800Z,1.80
2022-11-03T14:47:25.803Z,2.03
2022-11-03T14:49:54.415Z,3.10
2022-11-03T14:52:25.346Z,2.77
2022-11-03T14:54:57.829Z,2.10
2022-11-03T14:57:32.148Z,2.40
2022-11-03T15:00:06.171Z,2.60
2022-11-03T15:02:35.772Z,1.83
2022-11-03T15:05:04.616Z,1.87
2022-11-03T15:07:33.646Z,3.10
2022-11-03T15:21:54.138Z,2.67
2022-11-03T15:45:40.938Z,2.70
2022-11-03T15:48:58.312Z,2.37
2022-11-03T16:06:24.195Z,1.93
2022-11-03T16:09:05.800Z,2.30
2022-11-03T16:11:34.896Z,2.60
2022-11-03T16:14:03.524Z,2.53
2022-11-03T16:16:32.084Z,2.60
2022-11-03T16:19:00.845Z,2.10
2022-11-03T16:21:29.908Z,2.20
2022-11-03T16:24:46.664Z,2.33
2022-11-03T16:30:48.528Z,2.33
2022-11-03T16:33:21.699Z,2.97
2022-11-03T16:35:53.510Z,2.57
2022-11-03T16:38:23.140Z,2.60
2022-11-03T16:55:11.547Z,2.80
2022-11-03T16:57:54.818Z,2.63
2022-11-03T17:00:27.570Z,3.50
2022-11-03T17:02:59.770Z,3.57
2022-11-03T17:05:34.200Z,2.80
2022-11-03T17:08:03.678Z,3.40
2022-11-03T17:10:43.911Z,3.90
2022-11-03T17:13:30.822Z,2.73
2022-11-03T17:16:07.775Z,3.10
2022-11-03T17:18:40.157Z,3.33
2022-11-03T17:21:21.714Z,3.63
2022-11-03T17:23:57.556Z,4.00
2022-11-03T17:26:37.744Z,4.50
2022-11-03T17:29:21.477Z,3.40
2022-11-03T17:32:24.094Z,3.90
2022-11-03T17:35:10.361Z,5.07
2022-11-03T17:37:38.861Z,3.00
2022-11-03T17:40:16.869Z,4.23
2022-11-03T17:42:45.337Z,5.13
2022-11-03T17:45:28.842Z,4.60
2022-11-03T17:48:01.646Z,4.10
2022-11-03T17:50:37.685Z,3.53
2022-11-03T17:53:06.294Z,4.53
2022-11-03T17:56:28.967Z,5.37
2022-11-03T17:58:47.453Z,4.23
2022-11-03T18:01:21.160Z,4.70
2022-11-03T18:03:52.036Z,5.07
2022-11-03T18:06:21.426Z,6.20
2022-11-03T18:08:50.388Z,6.63
2022-11-03T18:11:35.999Z,6.33
2022-11-03T18:14:05.710Z,5.63
2022-11-03T18:16:34.615Z,4.73
2022-11-03T18:19:04.408Z,5.17
2022-11-03T18:21:34.425Z,4.47
2022-11-03T18:24:02.855Z,6.47
2022-11-03T18:26:48.314Z,2.83
2022-11-03T18:29:16.785Z,5.80
2022-11-03T18:31:49.643Z,4.07
2022-11-03T18:34:28.132Z,4.40
2022-11-03T18:37:05.358Z,7.00
2022-11-03T18:39:51.359Z,6.67
2022-11-03T18:42:25.863Z,5.27
2022-11-03T18:45:04.727Z,6.83
2022-11-03T18:47:49.987Z,6.13
2022-11-03T18:50:20.239Z,7.00
2022-11-03T18:52:49.571Z,7.07
2022-11-03T18:55:25.568Z,5.43
2022-11-03T18:57:57.026Z,7.27
2022-11-03T19:00:25.534Z,7.73
2022-11-03T19:02:53.981Z,7.70
2022-11-03T19:05:23.799Z,7.23
2022-11-03T19:07:56.743Z,8.03
2022-11-03T19:10:30.632Z,8.23
2022-11-03T19:12:59.490Z,6.40
2022-11-03T19:15:27.871Z,7.77
2022-11-03T19:18:05.396Z,8.40
2022-11-03T19:20:39.589Z,8.00
2022-11-03T19:23:08.247Z,7.40
2022-11-03T19:25:37.212Z,7.60
2022-11-03T19:28:05.811Z,8.27
2022-11-03T19:30:42.891Z,10.53
2022-11-03T19:33:17.402Z,9.83
2022-11-03T19:35:47.498Z,11.80
2022-11-03T19:38:16.850Z,11.77
2022-11-03T19:40:59.915Z,11.63
2022-11-03T19:43:33.310Z,10.03
2022-11-03T19:46:02.864Z,11.50
2022-11-03T19:48:33.248Z,11.77
2022-11-03T19:51:10.550Z,15.03
2022-11-03T19:53:42.123Z,12.73
2022-11-03T19:56:17.678Z,9.67
2022-11-03T19:58:47.392Z,15.20
2022-11-03T20:01:17.989Z,15.87
2022-11-03T20:03:48.936Z,13.77
2022-11-03T20:06:19.575Z,12.87
2022-11-03T20:08:48.400Z,12.90
2022-11-03T20:11:16.741Z,17.20
2022-11-03T20:13:45.375Z,11.37
2022-11-03T20:16:14.319Z,13.50
2022-11-03T20:18:43.356Z,14.27
2022-11-03T20:21:13.647Z,16.37
2022-11-03T20:23:43.642Z,16.53
2022-11-03T20:26:14.611Z,13.33
2022-11-03T20:28:43.280Z,13.17
2022-11-03T20:31:12.312Z,11.23
2022-11-03T20:33:40.992Z,8.00
2022-11-03T20:36:13.130Z,3.90
2022-11-03T20:38:42.927Z,1.80
2022-11-03T20:41:14.846Z,1.67
2022-11-03T20:43:45.216Z,1.47
2022-11-03T20:46:20.047Z,0.80
2022-11-03T20:48:48.424Z,1.30
2022-11-03T20:51:17.354Z,1.97
2022-11-03T20:53:47.847Z,1.27
2022-11-03T20:56:19.572Z,0.73
2022-11-03T20:58:48.577Z,1.17
2022-11-03T21:01:18.442Z,1.23
2022-11-03T21:04:02.585Z,0.87
2022-11-03T21:06:31.982Z,1.07
2022-11-03T21:09:01.897Z,0.93
2022-11-03T21:11:31.156Z,1.17
2022-11-03T21:14:00.484Z,0.83
2022-11-03T21:16:47.407Z,0.67
2022-11-03T21:19:39.466Z,1.60
2022-11-03T21:22:30.712Z,0.87
2022-11-03T21:25:04.186Z,1.20
2022-11-03T21:27:33.838Z,0.80
2022-11-03T21:30:03.183Z,0.73
2022-11-03T21:32:31.590Z,0.60
2022-11-03T21:35:01.778Z,1.50
2022-11-03T21:37:30.375Z,1.20
2022-11-03T21:39:58.765Z,1.53
2022-11-03T21:42:45.927Z,1.57
2022-11-03T21:45:14.779Z,0.60
2022-11-03T21:48:07.446Z,1.03
2022-11-03T21:50:37.614Z,0.40
2022-11-03T21:53:06.998Z,0.40
2022-11-03T21:55:35.693Z,0.50
2022-11-03T21:58:05.897Z,0.40
2022-11-03T22:00:34.579Z,0.50
2022-11-03T22:03:03.184Z,0.50
2022-11-03T22:05:31.694Z,0.40
2022-11-03T22:08:00.137Z,0.50
2022-11-03T22:10:28.581Z,0.50
2022-11-03T22:12:56.894Z,0.50
2022-11-03T22:15:40.486Z,0.50
2022-11-03T22:18:09.179Z,0.43
2022-11-03T22:20:55.147Z,0.43
2022-11-03T22:23:37.501Z,0.50
2022-11-03T22:26:23.631Z,0.50
2022-11-03T22:29:11.974Z,0.50
2022-11-03T22:31:40.720Z,0.50
2022-11-03T22:34:26.554Z,0.50
2022-11-03T22:36:54.936Z,0.50
2022-11-03T22:39:40.698Z,0.40
2022-11-03T22:42:26.277Z,0.50
2022-11-03T22:45:11.974Z,0.50
2022-11-03T22:47:41.730Z,0.50
2022-11-03T22:50:10.388Z,0.50
2022-11-03T22:52:38.753Z,0.50
2022-11-03T22:55:06.226Z,0.47
2022-11-03T22:57:34.585Z,0.50
2022-11-03T23:00:05.620Z,0.50
2022-11-03T23:02:34.079Z,0.50
2022-11-03T23:05:03.895Z,0.50
2022-11-03T23:07:35.830Z,0.50
2022-11-03T23:10:07.205Z,0.50
2022-11-03T23:12:35.653Z,0.50
2022-11-03T23:15:21.546Z,0.40
2022-11-03T23:18:08.289Z,0.40
2022-11-03T23:20:57.840Z,0.40
2022-11-03T23:23:43.656Z,0.43
2022-11-03T23:26:11.984Z,0.50
2022-11-03T23:28:40.420Z,0.50
2022-11-03T23:31:08.830Z,0.50
2022-11-03T23:33:37.421Z,0.50
2022-11-03T23:36:08.315Z,0.50
2022-11-03T23:38:37.461Z,0.40
2022-11-03T23:41:06.734Z,0.50
2022-11-03T23:43:35.159Z,0.40
2022-11-03T23:46:21.099Z,0.43
2022-11-03T23:48:49.680Z,0.40
2022-11-03T23:51:20.339Z,0.40
2022-11-03T23:53:49.063Z,0.50
2022-11-03T23:56:35.608Z,0.47
2022-11-03T23:59:04.011Z,0.50
